createdAt,value
2018-03-20T00:00:42.236Z,-4.80
2018-03-20T00:03:11.245Z,-4.90
2018-03-20T00:05:40.254Z,-4.90
2018-03-20T00:08:09.209Z,-4.90
2018-03-20T00:10:39.655Z,-4.90
2018-03-20T00:13:08.664Z,-4.90
2018-03-20T00:15:37.672Z,-5.00
2018-03-20T00:18:06.675Z,-5.00
2018-03-20T00:20:35.640Z,-5.00
2018-03-20T00:23:04.679Z,-5.10
2018-03-20T00:25:33.659Z,-5.10
2018-03-20T00:28:02.674Z,-5.10
2018-03-20T00:30:31.728Z,-5.20
2018-03-20T00:33:00.748Z,-5.20
2018-03-20T00:35:29.733Z,-5.20
2018-03-20T00:37:58.759Z,-5.20
2018-03-20T00:40:27.832Z,-5.20
2018-03-20T00:42:56.825Z,-5.30
2018-03-20T00:45:25.889Z,-5.20
2018-03-20T00:47:55.699Z,-5.30
2018-03-20T00:50:25.528Z,-5.40
2018-03-20T00:52:54.530Z,-5.40
2018-03-20T00:55:23.550Z,-5.40
2018-03-20T00:57:52.508Z,-5.40
2018-03-20T01:00:22.282Z,-5.50
2018-03-20T01:02:51.236Z,-5.50
2018-03-20T01:05:20.291Z,-5.50
2018-03-20T01:07:49.340Z,-5.60
2018-03-20T01:10:18.316Z,-5.60
2018-03-20T01:12:47.336Z,-5.70
2018-03-20T01:15:16.337Z,-5.70
2018-03-20T01:17:45.329Z,-5.80
2018-03-20T01:20:14.214Z,-5.80
2018-03-20T01:22:43.182Z,-5.80
2018-03-20T01:25:12.228Z,-5.80
2018-03-20T01:27:42.104Z,-5.80
2018-03-20T01:30:11.129Z,-5.80
2018-03-20T01:32:40.149Z,-5.90
2018-03-20T01:35:16.097Z,-5.90
2018-03-20T01:37:45.100Z,-6.00
2018-03-20T01:40:14.165Z,-6.00
2018-03-20T01:42:43.186Z,-6.10
2018-03-20T01:45:12.169Z,-6.10
2018-03-20T01:47:41.977Z,-6.10
2018-03-20T01:50:10.953Z,-6.20
2018-03-20T01:52:39.983Z,-6.10
2018-03-20T01:55:09.058Z,-6.20
2018-03-20T01:57:38.076Z,-6.20
2018-03-20T02:00:07.072Z,-6.20
2018-03-20T02:02:36.097Z,-6.20
2018-03-20T02:05:05.100Z,-6.30
2018-03-20T02:07:34.113Z,-6.30
2018-03-20T02:10:03.891Z,-6.50
2018-03-20T02:12:32.837Z,-6.50
2018-03-20T02:15:02.615Z,-6.60
2018-03-20T02:17:31.606Z,-6.60
2018-03-20T02:20:00.592Z,-6.60
2018-03-20T02:22:29.581Z,-6.70
2018-03-20T02:24:58.561Z,-6.70
2018-03-20T02:27:27.580Z,-6.80
2018-03-20T02:29:56.557Z,-6.80
2018-03-20T02:32:25.569Z,-6.80
2018-03-20T02:34:54.600Z,-6.80
2018-03-20T02:37:24.396Z,-6.70
2018-03-20T02:39:53.444Z,-6.80
2018-03-20T02:42:22.436Z,-6.70
2018-03-20T02:44:51.442Z,-6.80
2018-03-20T02:47:20.388Z,-6.80
2018-03-20T02:49:49.430Z,-6.80
2018-03-20T02:52:20.875Z,-6.80
2018-03-20T02:54:49.891Z,-6.90
2018-03-20T02:57:18.913Z,-7.00
2018-03-20T02:59:47.784Z,-7.00
2018-03-20T03:02:16.777Z,-7.10
2018-03-20T03:04:45.658Z,-7.10
2018-03-20T03:07:14.517Z,-7.10
2018-03-20T03:09:44.182Z,-7.10
2018-03-20T03:12:13.056Z,-7.10
2018-03-20T03:14:41.906Z,-7.10
2018-03-20T03:17:10.744Z,-7.20
2018-03-20T03:19:39.655Z,-7.10
2018-03-20T03:22:08.555Z,-7.10
2018-03-20T03:24:37.468Z,-7.20
2018-03-20T03:27:06.628Z,-7.30
2018-03-20T03:29:35.512Z,-7.40
2018-03-20T03:32:04.336Z,-7.40
2018-03-20T03:34:33.403Z,-7.50
2018-03-20T03:37:02.279Z,-7.50
2018-03-20T03:39:31.928Z,-7.50
2018-03-20T03:42:00.756Z,-7.60
2018-03-20T03:44:29.604Z,-7.50
2018-03-20T03:46:58.565Z,-7.60
2018-03-20T03:49:28.187Z,-7.60
2018-03-20T03:51:57.006Z,-7.70
2018-03-20T03:54:25.904Z,-7.70
2018-03-20T03:56:54.756Z,-7.70
2018-03-20T03:59:24.365Z,-7.70
2018-03-20T04:01:53.968Z,-7.80
2018-03-20T04:04:23.631Z,-7.90
2018-03-20T04:06:52.493Z,-7.90
2018-03-20T04:09:21.382Z,-7.90
2018-03-20T04:11:50.039Z,-7.90
2018-03-20T04:14:18.625Z,-7.90
2018-03-20T04:16:47.496Z,-7.90
2018-03-20T04:19:17.127Z,-8.00
2018-03-20T04:21:46.036Z,-8.00
2018-03-20T04:24:14.901Z,-8.00
2018-03-20T04:26:43.832Z,-8.00
2018-03-20T04:29:13.499Z,-8.00
2018-03-20T04:31:44.165Z,-8.00
2018-03-20T04:34:12.974Z,-8.00
2018-03-20T04:36:41.874Z,-8.00
2018-03-20T04:39:10.734Z,-8.10
2018-03-20T04:41:39.531Z,-8.10
2018-03-20T04:44:09.183Z,-8.20
2018-03-20T04:46:37.992Z,-8.20
2018-03-20T04:49:07.612Z,-8.20
2018-03-20T04:51:36.476Z,-8.20
2018-03-20T04:54:05.302Z,-8.20
2018-03-20T04:56:34.179Z,-8.20
2018-03-20T04:59:03.059Z,-8.10
2018-03-20T05:01:31.948Z,-8.10
2018-03-20T05:04:00.748Z,-8.10
2018-03-20T05:06:29.641Z,-8.20
2018-03-20T05:08:58.506Z,-8.20
2018-03-20T05:11:27.383Z,-8.20
2018-03-20T05:13:57.030Z,-8.30
2018-03-20T05:16:25.749Z,-8.30
2018-03-20T05:19:14.176Z,-8.30
2018-03-20T05:21:48.403Z,-8.40
2018-03-20T05:24:17.110Z,-8.30
2018-03-20T05:26:45.872Z,-8.30
2018-03-20T05:29:14.589Z,-8.20
2018-03-20T05:31:43.296Z,-8.20
2018-03-20T05:34:12.016Z,-8.20
2018-03-20T05:36:45.465Z,-8.20
2018-03-20T05:39:14.177Z,-8.20
2018-03-20T05:41:42.899Z,-8.20
2018-03-20T05:44:12.353Z,-8.20
2018-03-20T05:50:02.816Z,-8.10
2018-03-20T05:52:32.223Z,-8.10
2018-03-20T05:55:01.591Z,-8.10
2018-03-20T05:57:30.393Z,-8.20
2018-03-20T05:59:59.156Z,-8.10
2018-03-20T06:02:27.837Z,-8.10
2018-03-20T06:04:56.622Z,-8.00
2018-03-20T06:07:25.468Z,-8.00
2018-03-20T06:09:55.019Z,-8.00
2018-03-20T06:12:23.810Z,-8.00
2018-03-20T06:14:52.571Z,-7.90
2018-03-20T06:17:22.149Z,-7.70
2018-03-20T06:19:50.944Z,-7.70
2018-03-20T06:22:19.731Z,-7.40
2018-03-20T06:24:48.527Z,-7.10
2018-03-20T06:27:17.339Z,-6.90
2018-03-20T06:29:47.983Z,-6.60
2018-03-20T06:32:16.787Z,-6.60
2018-03-20T06:34:45.553Z,-6.40
2018-03-20T06:37:14.392Z,-6.30
2018-03-20T06:39:43.191Z,-6.20
2018-03-20T06:45:08.372Z,-5.50
2018-03-20T06:47:37.227Z,-5.50
2018-03-20T06:50:06.099Z,-5.20
2018-03-20T06:52:34.875Z,-5.20
2018-03-20T06:55:03.678Z,-5.00
2018-03-20T06:57:33.223Z,-4.90
2018-03-20T07:00:02.027Z,-4.90
2018-03-20T07:02:30.885Z,-4.70
2018-03-20T07:04:59.694Z,-4.60
2018-03-20T07:07:28.488Z,-4.40
2018-03-20T07:09:57.277Z,-4.30
2018-03-20T07:12:25.776Z,-4.20
2018-03-20T07:14:54.536Z,-4.00
2018-03-20T07:17:23.330Z,-3.70
2018-03-20T07:19:52.696Z,-3.60
2018-03-20T07:22:21.543Z,-3.60
2018-03-20T07:24:50.280Z,-3.50
2018-03-20T07:27:19.129Z,-3.70
2018-03-20T07:29:48.758Z,-3.50
2018-03-20T07:32:18.379Z,-3.50
2018-03-20T07:34:47.222Z,-3.60
2018-03-20T07:37:16.051Z,-3.60
2018-03-20T07:39:45.672Z,-3.60
2018-03-20T07:42:14.554Z,-3.60
2018-03-20T07:44:44.204Z,-3.20
2018-03-20T07:47:13.018Z,-3.30
2018-03-20T07:49:42.051Z,-3.10
2018-03-20T07:52:11.705Z,-3.00
2018-03-20T07:54:40.548Z,-3.00
2018-03-20T07:57:10.207Z,-2.90
2018-03-20T07:59:38.938Z,-3.00
2018-03-20T08:02:07.829Z,-2.90
2018-03-20T08:04:37.490Z,-2.80
2018-03-20T08:07:06.346Z,-2.80
2018-03-20T08:09:35.968Z,-2.60
2018-03-20T08:12:05.619Z,-2.60
2018-03-20T08:14:34.519Z,-2.60
2018-03-20T08:17:03.388Z,-2.50
2018-03-20T08:19:32.364Z,-2.50
2018-03-20T08:22:01.172Z,-2.50
2018-03-20T08:24:30.028Z,-2.60
2018-03-20T08:26:59.632Z,-2.50
2018-03-20T08:29:29.280Z,-2.60
2018-03-20T08:32:10.166Z,-2.60
2018-03-20T08:34:39.176Z,-2.50
2018-03-20T08:37:08.054Z,-2.30
2018-03-20T08:39:36.896Z,-2.30
2018-03-20T08:42:05.976Z,-2.20
2018-03-20T08:44:34.830Z,-2.10
2018-03-20T08:47:03.719Z,-2.00
2018-03-20T08:49:32.558Z,-2.10
2018-03-20T08:52:01.429Z,-2.20
2018-03-20T08:54:31.356Z,-2.30
2018-03-20T08:57:00.237Z,-2.30
2018-03-20T08:59:29.103Z,-2.30
2018-03-20T09:01:57.955Z,-2.20
2018-03-20T09:04:26.855Z,-2.10
2018-03-20T09:06:56.149Z,-2.00
2018-03-20T09:09:24.880Z,-2.00
2018-03-20T09:12:14.685Z,-1.90
2018-03-20T09:14:43.570Z,-1.90
2018-03-20T09:17:12.450Z,-1.90
2018-03-20T09:19:41.332Z,-1.80
2018-03-20T09:22:10.195Z,-1.70
2018-03-20T09:24:39.062Z,-1.70
2018-03-20T09:27:07.588Z,-1.70
2018-03-20T09:29:36.440Z,-1.60
2018-03-20T09:32:05.334Z,-1.40
2018-03-20T09:34:34.207Z,-1.20
2018-03-20T09:37:03.048Z,-0.90
2018-03-20T09:39:31.920Z,-0.60
2018-03-20T09:42:01.238Z,-0.30
2018-03-20T09:44:30.108Z,-0.40
2018-03-20T09:47:00.041Z,-0.10
2018-03-20T09:49:29.389Z,-0.20
2018-03-20T09:51:57.990Z,-0.30
2018-03-20T09:54:26.612Z,-0.20
2018-03-20T09:56:55.463Z,-0.30
2018-03-20T09:59:24.077Z,-0.30
2018-03-20T10:01:52.775Z,-0.30
2018-03-20T10:04:21.440Z,-0.40
2018-03-20T10:06:50.047Z,-0.50
2018-03-20T10:09:18.885Z,-0.60
2018-03-20T10:11:47.435Z,-0.60
2018-03-20T10:14:16.035Z,-0.60
2018-03-20T10:16:45.357Z,-0.70
2018-03-20T10:19:13.962Z,-0.70
2018-03-20T10:21:42.528Z,-0.60
2018-03-20T10:24:11.099Z,-0.40
2018-03-20T10:26:39.690Z,-0.40
2018-03-20T10:29:08.264Z,-0.40
2018-03-20T10:31:37.561Z,-0.40
2018-03-20T10:34:06.939Z,-0.30
2018-03-20T10:36:35.467Z,-0.30
2018-03-20T10:39:03.473Z,-0.30
2018-03-20T10:41:32.103Z,-0.10
2018-03-20T10:44:00.807Z,0.00
2018-03-20T10:46:29.414Z,0.00
2018-03-20T10:48:58.008Z,0.00
2018-03-20T10:51:26.794Z,0.10
2018-03-20T10:53:55.325Z,0.10
2018-03-20T10:56:23.922Z,0.10
2018-03-20T10:58:52.502Z,0.20
2018-03-20T11:01:26.623Z,0.30
2018-03-20T11:03:55.077Z,0.20
2018-03-20T11:06:23.627Z,0.00
2018-03-20T11:08:52.200Z,-0.10
2018-03-20T11:11:21.495Z,-0.20
2018-03-20T11:13:50.818Z,-0.30
2018-03-20T11:16:19.386Z,-0.30
2018-03-20T11:18:48.752Z,-0.30
2018-03-20T11:21:17.336Z,-0.30
2018-03-20T11:23:45.984Z,-0.40
2018-03-20T11:26:14.522Z,-0.40
2018-03-20T11:28:43.334Z,-0.40
2018-03-20T11:31:11.941Z,-0.40
2018-03-20T11:33:40.534Z,-0.40
2018-03-20T11:36:09.144Z,-0.20
2018-03-20T11:38:37.674Z,-0.20
2018-03-20T11:41:06.272Z,-0.20
2018-03-20T11:43:35.640Z,-0.10
2018-03-20T11:46:05.045Z,-0.10
2018-03-20T11:48:33.664Z,-0.10
2018-03-20T11:51:03.012Z,-0.10
2018-03-20T11:53:31.560Z,-0.20
2018-03-20T11:56:00.107Z,-0.10
2018-03-20T11:58:28.666Z,-0.10
2018-03-20T12:00:57.187Z,0.00
2018-03-20T12:03:25.810Z,0.00
2018-03-20T12:05:54.400Z,0.00
2018-03-20T12:08:34.099Z,0.10
2018-03-20T12:11:02.661Z,0.20
2018-03-20T12:13:31.291Z,0.40
2018-03-20T12:15:59.924Z,0.40
2018-03-20T12:18:28.499Z,0.50
2018-03-20T12:20:57.071Z,0.40
2018-03-20T12:23:27.830Z,0.40
2018-03-20T12:25:56.439Z,0.40
2018-03-20T12:28:25.071Z,0.40
2018-03-20T12:30:53.682Z,0.40
2018-03-20T12:33:22.254Z,0.30
2018-03-20T12:35:51.614Z,0.20
2018-03-20T12:38:20.213Z,0.20
2018-03-20T12:40:48.802Z,0.20
2018-03-20T12:43:17.393Z,0.10
2018-03-20T12:45:48.133Z,0.10
2018-03-20T12:48:23.972Z,0.00
2018-03-20T12:50:53.305Z,0.20
2018-03-20T12:53:21.910Z,0.20
2018-03-20T12:55:51.279Z,0.10
2018-03-20T12:58:19.885Z,0.00
2018-03-20T13:00:49.221Z,0.20
2018-03-20T13:03:17.774Z,0.20
2018-03-20T13:05:47.162Z,0.40
2018-03-20T13:08:15.790Z,0.40
2018-03-20T13:10:44.420Z,0.50
2018-03-20T13:13:13.039Z,0.40
2018-03-20T13:15:42.447Z,0.30
2018-03-20T13:18:11.020Z,0.30
2018-03-20T13:20:39.599Z,0.20
2018-03-20T13:23:08.181Z,0.10
2018-03-20T13:25:36.726Z,0.10
2018-03-20T13:28:05.387Z,0.10
2018-03-20T13:30:34.026Z,0.10
2018-03-20T13:33:02.709Z,0.20
2018-03-20T13:35:32.396Z,0.20
2018-03-20T13:38:01.092Z,0.40
2018-03-20T13:40:29.841Z,0.40
2018-03-20T13:42:58.428Z,0.40
2018-03-20T13:45:28.922Z,0.50
2018-03-20T13:47:57.464Z,0.50
2018-03-20T13:50:26.063Z,0.60
2018-03-20T13:52:55.610Z,0.70
2018-03-20T13:55:24.443Z,0.70
2018-03-20T13:57:53.839Z,0.90
2018-03-20T14:00:23.218Z,1.00
2018-03-20T14:02:51.820Z,1.00
2018-03-20T14:05:20.395Z,1.20
2018-03-20T14:07:48.922Z,1.20
2018-03-20T14:10:20.945Z,1.30
2018-03-20T14:12:49.550Z,1.10
2018-03-20T14:15:18.935Z,1.10
2018-03-20T14:17:47.537Z,1.10
2018-03-20T14:20:16.128Z,1.10
2018-03-20T14:22:44.680Z,1.00
2018-03-20T14:25:13.283Z,0.90
2018-03-20T14:27:41.832Z,0.90
2018-03-20T14:30:10.433Z,0.90
2018-03-20T14:32:38.999Z,0.90
2018-03-20T14:35:07.571Z,1.00
2018-03-20T14:37:36.334Z,1.10
2018-03-20T14:40:05.698Z,1.00
2018-03-20T14:42:34.280Z,0.90
2018-03-20T14:45:02.893Z,0.90
2018-03-20T14:47:32.257Z,0.80
2018-03-20T14:50:00.823Z,0.80
2018-03-20T14:52:29.426Z,0.70
2018-03-20T14:54:58.794Z,0.70
2018-03-20T14:57:28.147Z,0.70
2018-03-20T14:59:56.751Z,0.70
2018-03-20T15:02:25.367Z,0.70
2018-03-20T15:04:54.065Z,0.70
2018-03-20T15:07:23.426Z,0.70
2018-03-20T15:09:52.215Z,0.70
2018-03-20T15:12:20.782Z,0.80
2018-03-20T15:14:49.406Z,0.90
2018-03-20T15:17:17.966Z,0.90
2018-03-20T15:19:46.586Z,0.90
2018-03-20T15:22:15.188Z,0.90
2018-03-20T15:24:44.536Z,0.90
2018-03-20T15:27:13.133Z,0.90
2018-03-20T15:29:41.700Z,0.90
2018-03-20T15:32:10.274Z,0.80
2018-03-20T15:34:38.824Z,0.80
2018-03-20T15:37:07.448Z,0.90
2018-03-20T15:39:36.156Z,0.90
2018-03-20T15:42:04.674Z,0.80
2018-03-20T15:44:33.293Z,0.90
2018-03-20T15:47:02.637Z,0.90
2018-03-20T15:49:31.221Z,0.90
2018-03-20T15:51:59.955Z,1.00
2018-03-20T15:54:28.620Z,1.00
2018-03-20T15:56:57.256Z,1.00
2018-03-20T15:59:25.795Z,1.00
2018-03-20T16:01:54.391Z,1.10
2018-03-20T16:04:22.955Z,1.20
2018-03-20T16:06:51.525Z,1.30
2018-03-20T16:09:20.141Z,1.50
2018-03-20T16:11:48.745Z,1.60
2018-03-20T16:14:17.335Z,1.70
2018-03-20T16:16:46.722Z,1.80
2018-03-20T16:19:15.475Z,1.80
2018-03-20T16:21:44.045Z,1.90
2018-03-20T16:24:12.608Z,1.90
2018-03-20T16:26:41.197Z,1.90
2018-03-20T16:29:09.836Z,1.80
2018-03-20T16:31:38.472Z,1.90
2018-03-20T16:34:07.052Z,1.90
2018-03-20T16:36:35.652Z,1.80
2018-03-20T16:39:04.390Z,1.70
2018-03-20T16:41:32.994Z,1.70
2018-03-20T16:44:01.551Z,1.70
2018-03-20T16:46:30.190Z,1.70
2018-03-20T16:48:59.505Z,1.70
2018-03-20T16:51:28.873Z,1.70
2018-03-20T16:53:57.437Z,1.70
2018-03-20T16:56:26.031Z,1.70
2018-03-20T16:58:54.667Z,1.70
2018-03-20T17:01:24.028Z,1.70
2018-03-20T17:03:52.641Z,1.70
2018-03-20T17:06:21.283Z,1.60
2018-03-20T17:08:49.902Z,1.60
2018-03-20T17:11:18.441Z,1.70
2018-03-20T17:13:47.016Z,1.70
2018-03-20T17:16:15.603Z,1.70
2018-03-20T17:18:44.173Z,1.70
2018-03-20T17:21:13.532Z,1.60
2018-03-20T17:23:42.105Z,1.60
2018-03-20T17:26:10.669Z,1.60
2018-03-20T17:28:39.217Z,1.60
2018-03-20T17:31:07.749Z,1.60
2018-03-20T17:33:36.446Z,1.50
2018-03-20T17:36:04.982Z,1.40
2018-03-20T17:38:33.474Z,1.40
2018-03-20T17:41:02.000Z,1.50
2018-03-20T17:43:31.261Z,1.30
2018-03-20T17:45:59.788Z,1.30
2018-03-20T17:48:28.311Z,1.20
2018-03-20T17:50:56.823Z,1.10
2018-03-20T17:53:26.121Z,1.00
2018-03-20T17:55:55.397Z,1.00
2018-03-20T17:58:23.912Z,1.00
2018-03-20T18:00:53.021Z,0.90
2018-03-20T18:03:22.384Z,0.90
2018-03-20T18:05:51.200Z,0.90
2018-03-20T18:08:19.764Z,0.80
2018-03-20T18:10:48.282Z,0.70
2018-03-20T18:13:16.847Z,0.60
2018-03-20T18:15:51.824Z,0.50
2018-03-20T18:18:20.340Z,0.40
2018-03-20T18:20:52.336Z,0.20
2018-03-20T18:23:21.080Z,0.10
2018-03-20T18:25:49.612Z,-0.10
2018-03-20T18:28:18.157Z,-0.20
2018-03-20T18:30:46.690Z,-0.30
2018-03-20T18:33:15.953Z,-0.50
2018-03-20T18:35:44.493Z,-0.60
2018-03-20T18:38:13.743Z,-0.70
2018-03-20T18:40:42.296Z,-0.70
2018-03-20T18:43:10.870Z,-0.70
2018-03-20T18:45:40.411Z,-0.80
2018-03-20T18:48:08.956Z,-0.80
2018-03-20T18:50:38.215Z,-1.00
2018-03-20T18:53:06.754Z,-1.00
2018-03-20T18:55:38.502Z,-1.00
2018-03-20T18:58:09.695Z,-1.00
2018-03-20T19:00:39.740Z,-1.10
2018-03-20T19:03:09.104Z,-1.10
2018-03-20T19:05:45.313Z,-1.20
2018-03-20T19:08:13.818Z,-1.20
2018-03-20T19:10:43.190Z,-1.20
2018-03-20T19:13:11.694Z,-1.20
2018-03-20T19:15:40.486Z,-1.30
2018-03-20T19:18:09.294Z,-1.40
2018-03-20T19:20:38.060Z,-1.50
2018-03-20T19:23:06.589Z,-1.60
2018-03-20T19:25:36.130Z,-1.60
2018-03-20T19:28:04.810Z,-1.60
2018-03-20T19:30:33.356Z,-1.70
2018-03-20T19:33:01.855Z,-1.80
2018-03-20T19:35:31.439Z,-1.80
2018-03-20T19:38:00.260Z,-1.90
2018-03-20T19:40:29.874Z,-1.90
2018-03-20T19:42:59.548Z,-2.00
2018-03-20T19:45:28.448Z,-2.00
2018-03-20T19:47:57.357Z,-2.00
2018-03-20T19:50:26.985Z,-2.10
2018-03-20T19:52:55.855Z,-2.20
2018-03-20T19:55:24.762Z,-2.30
2018-03-20T19:57:53.702Z,-2.30
2018-03-20T20:00:22.640Z,-2.40
2018-03-20T20:02:52.266Z,-2.50
2018-03-20T20:05:21.917Z,-2.50
2018-03-20T20:07:50.849Z,-2.50
2018-03-20T20:10:19.713Z,-2.60
2018-03-20T20:12:48.571Z,-2.60
2018-03-20T20:15:17.426Z,-2.70
2018-03-20T20:17:46.305Z,-2.70
2018-03-20T20:20:15.241Z,-2.80
2018-03-20T20:22:49.734Z,-2.70
2018-03-20T20:25:18.581Z,-2.80
2018-03-20T20:27:47.441Z,-2.80
2018-03-20T20:30:17.109Z,-2.80
2018-03-20T20:32:46.003Z,-2.80
2018-03-20T20:35:14.876Z,-2.90
2018-03-20T20:37:47.972Z,-2.90
2018-03-20T20:40:16.852Z,-3.00
2018-03-20T20:42:48.977Z,-3.10
2018-03-20T20:45:17.863Z,-3.10
2018-03-20T20:47:46.811Z,-3.10
2018-03-20T20:50:17.727Z,-3.20
2018-03-20T20:52:48.498Z,-3.10
2018-03-20T20:55:17.434Z,-3.10
2018-03-20T20:57:46.387Z,-3.10
2018-03-20T21:00:15.621Z,-3.10
2018-03-20T21:02:44.496Z,-3.00
2018-03-20T21:05:13.383Z,-3.00
2018-03-20T21:07:42.236Z,-3.00
2018-03-20T21:10:11.110Z,-3.10
2018-03-20T21:12:40.903Z,-3.40
2018-03-20T21:15:09.773Z,-3.40
2018-03-20T21:17:43.076Z,-3.50
2018-03-20T21:20:12.013Z,-3.50
2018-03-20T21:22:41.651Z,-3.70
2018-03-20T21:25:10.505Z,-3.60
2018-03-20T21:27:39.366Z,-3.70
2018-03-20T21:30:08.196Z,-3.70
2018-03-20T21:32:37.042Z,-3.60
2018-03-20T21:35:05.938Z,-3.60
2018-03-20T21:37:34.744Z,-3.50
2018-03-20T21:40:03.621Z,-3.40
2018-03-20T21:42:32.474Z,-3.50
2018-03-20T21:45:01.332Z,-3.50
2018-03-20T21:47:30.206Z,-3.60
2018-03-20T21:49:59.082Z,-3.50
2018-03-20T21:52:27.978Z,-3.50
2018-03-20T21:54:56.843Z,-3.50
2018-03-20T21:57:26.552Z,-3.60
2018-03-20T21:59:56.187Z,-3.60
2018-03-20T22:02:24.936Z,-3.60
2018-03-20T22:04:54.585Z,-3.70
2018-03-20T22:07:23.456Z,-3.70
2018-03-20T22:09:53.106Z,-3.80
2018-03-20T22:12:21.940Z,-3.90
2018-03-20T22:14:51.069Z,-3.90
2018-03-20T22:17:19.961Z,-3.90
2018-03-20T22:19:48.817Z,-3.90
2018-03-20T22:22:17.702Z,-4.00
2018-03-20T22:24:46.571Z,-4.10
2018-03-20T22:27:15.404Z,-4.20
2018-03-20T22:29:44.235Z,-4.20
2018-03-20T22:32:13.060Z,-4.30
2018-03-20T22:34:41.906Z,-4.30
2018-03-20T22:37:10.775Z,-4.40
2018-03-20T22:39:39.635Z,-4.40
2018-03-20T22:42:08.521Z,-4.40
2018-03-20T22:44:37.363Z,-4.40
2018-03-20T22:47:06.995Z,-4.40
2018-03-20T22:49:35.846Z,-4.40
2018-03-20T22:52:04.762Z,-4.40
2018-03-20T22:54:34.412Z,-4.50
2018-03-20T22:57:03.315Z,-4.50
2018-03-20T22:59:32.215Z,-4.60
2018-03-20T23:02:01.080Z,-4.50
2018-03-20T23:04:29.938Z,-4.50
2018-03-20T23:06:59.184Z,-4.60
2018-03-20T23:09:28.055Z,-4.50
2018-03-20T23:11:56.905Z,-4.60
2018-03-20T23:14:25.781Z,-4.60
2018-03-20T23:16:54.582Z,-4.60
2018-03-20T23:19:23.436Z,-4.70
2018-03-20T23:21:52.223Z,-4.80
2018-03-20T23:24:21.049Z,-4.90
2018-03-20T23:26:49.922Z,-4.80
2018-03-20T23:29:18.755Z,-4.80
2018-03-20T23:31:47.749Z,-4.80
2018-03-20T23:34:16.574Z,-4.80
2018-03-20T23:36:45.453Z,-4.90
2018-03-20T23:39:15.097Z,-5.10
2018-03-20T23:41:43.928Z,-5.10
2018-03-20T23:44:12.807Z,-5.20
2018-03-20T23:46:41.705Z,-5.20
2018-03-20T23:49:10.586Z,-5.20
2018-03-20T23:51:39.444Z,-5.30
2018-03-20T23:54:08.298Z,-5.30
2018-03-20T23:56:37.218Z,-5.30
2018-03-20T23:59:06.872Z,-5.40
